Time;durP1;ratioP1;P1;durP2;ratioP2;P2;SDS_P1;SDS_P2;PMS_P1;PMS_P2;Temp;Humidity;BMP_temperature;BMP_pressure;BME280_temperature;BME280_humidity;BME280_pressure;Samples;Min_cycle;Max_cycle;Signal;HPM_P1;HPM_P2
2022/05/09 00:01:47;;;;;;;0.00;0.00;;;16.20;89.50;;;;;;4164072;28;20042;-71
2022/05/09 00:04:12;;;;;;;0.00;0.00;;;16.20;89.40;;;;;;4164135;28;20064;-68
2022/05/09 00:06:37;;;;;;;0.00;0.00;;;16.20;89.20;;;;;;4163952;28;20049;-67
2022/05/09 00:09:01;;;;;;;0.00;0.00;;;16.20;89.40;;;;;;4164193;28;20069;-69
2022/05/09 00:11:27;;;;;;;0.00;0.00;;;16.20;89.40;;;;;;4164832;28;20049;-70
2022/05/09 00:14:04;;;;;;;0.00;0.00;;;16.30;89.50;;;;;;4164213;28;20129;-68
2022/05/09 00:16:37;;;;;;;0.00;0.00;;;16.20;89.50;;;;;;4150324;28;20049;-68
2022/05/09 00:19:03;;;;;;;0.00;0.00;;;16.20;89.50;;;;;;4164332;28;20430;-69
2022/05/09 00:21:33;;;;;;;0.00;0.00;;;16.20;89.50;;;;;;4166795;28;20067;-70
2022/05/09 00:24:13;;;;;;;0.00;0.00;;;16.20;89.40;;;;;;4167770;28;20065;-70
2022/05/09 00:26:40;;;;;;;0.00;0.00;;;16.20;89.70;;;;;;4167623;28;20046;-70
2022/05/09 00:29:06;;;;;;;0.00;0.00;;;16.20;89.80;;;;;;4180827;28;20041;-72
2022/05/09 00:31:33;;;;;;;0.00;0.00;;;16.20;89.70;;;;;;4167559;28;20045;-67
2022/05/09 00:34:07;;;;;;;0.00;0.00;;;16.20;89.70;;;;;;4180695;28;20045;-67
2022/05/09 00:36:32;;;;;;;0.00;0.00;;;16.10;89.80;;;;;;4139984;28;20357;-69
2022/05/09 00:39:01;;;;;;;0.00;0.00;;;16.10;89.80;;;;;;4167517;28;20128;-68
2022/05/09 00:41:37;;;;;;;0.00;0.00;;;16.00;90.10;;;;;;4166664;28;20064;-68
2022/05/09 00:44:09;;;;;;;0.00;0.00;;;16.10;90.10;;;;;;4166675;28;20049;-69
2022/05/09 00:46:33;;;;;;;0.00;0.00;;;16.10;90.00;;;;;;4166741;28;20076;-70
2022/05/09 00:49:14;;;;;;;0.00;0.00;;;16.10;90.00;;;;;;4166496;28;20041;-72
2022/05/09 00:51:40;;;;;;;0.00;0.00;;;16.10;89.90;;;;;;4152798;28;20054;-68
2022/05/09 00:54:04;;;;;;;0.00;0.00;;;16.10;89.80;;;;;;4166605;28;20045;-67
2022/05/09 00:56:49;;;;;;;0.00;0.00;;;16.20;89.80;;;;;;4178374;28;20061;-68
2022/05/09 00:59:18;;;;;;;0.00;0.00;;;16.10;89.80;;;;;;4167203;28;20076;-70
2022/05/09 01:01:49;;;;;;;0.00;0.00;;;16.10;89.80;;;;;;4179664;28;20129;-72
2022/05/09 01:04:25;;;;;;;0.00;0.00;;;16.10;89.80;;;;;;4166227;28;20042;-68
2022/05/09 01:06:51;;;;;;;0.00;0.00;;;16.10;89.80;;;;;;4167059;28;20124;-70
2022/05/09 01:09:14;;;;;;;0.00;0.00;;;16.10;89.90;;;;;;4152450;28;20125;-69
2022/05/09 01:11:44;;;;;;;0.00;0.00;;;16.00;90.10;;;;;;4153110;28;20049;-69
2022/05/09 01:14:27;;;;;;;0.00;0.00;;;15.90;90.20;;;;;;4154476;28;20042;-70
2022/05/09 01:16:55;;;;;;;0.00;0.00;;;15.90;90.30;;;;;;4166128;28;20427;-71
2022/05/09 01:19:33;;;;;;;0.00;0.00;;;15.80;90.30;;;;;;4166158;28;20042;-69
2022/05/09 01:22:29;;;;;;;0.00;0.00;;;15.70;90.60;;;;;;4177939;28;20045;-69
2022/05/09 01:25:03;;;;;;;0.00;0.00;;;15.70;90.60;;;;;;4166896;28;20045;-69
2022/05/09 01:27:38;;;;;;;0.00;0.00;;;15.80;90.50;;;;;;4166126;28;20136;-69
2022/05/09 01:30:10;;;;;;;0.00;0.00;;;15.80;90.30;;;;;;4152584;28;20499;-69
2022/05/09 01:32:49;;;;;;;0.00;0.00;;;15.90;90.30;;;;;;4165745;28;20123;-71
2022/05/09 01:35:34;;;;;;;0.00;0.00;;;15.90;90.30;;;;;;4165810;28;20049;-67
2022/05/09 01:38:20;;;;;;;0.00;0.00;;;15.80;90.50;;;;;;4165896;28;20053;-69
2022/05/09 01:40:42;;;;;;;0.00;0.00;;;15.80;90.60;;;;;;4165367;28;20045;-67
2022/05/09 01:43:04;;;;;;;0.00;0.00;;;15.80;90.50;;;;;;4165737;28;20045;-70
2022/05/09 01:45:26;;;;;;;0.00;0.00;;;15.90;90.40;;;;;;4165599;28;20144;-68
2022/05/09 01:50:30;;;;;;;0.00;0.00;;;16.00;90.30;;;;;;4152192;28;20050;-72
2022/05/09 01:52:54;;;;;;;0.00;0.00;;;16.00;90.30;;;;;;4152186;28;20053;-70
2022/05/09 01:55:18;;;;;;;0.00;0.00;;;15.90;90.40;;;;;;4165782;28;20431;-70
2022/05/09 01:57:45;;;;;;;0.00;0.00;;;15.90;90.40;;;;;;4165526;28;20064;-69
2022/05/09 02:00:10;;;;;;;0.00;0.00;;;15.80;90.60;;;;;;4165550;28;20132;-68
2022/05/09 02:02:40;;;;;;;0.00;0.00;;;15.60;90.90;;;;;;4165440;28;20049;-70
2022/05/09 02:05:05;;;;;;;0.00;0.00;;;15.60;91.10;;;;;;4151656;28;20129;-73
2022/05/09 02:07:32;;;;;;;0.00;0.00;;;15.60;91.10;;;;;;4165323;28;20038;-67
2022/05/09 02:09:56;;;;;;;0.00;0.00;;;15.60;91.10;;;;;;4165261;28;20083;-69
2022/05/09 02:12:19;;;;;;;0.00;0.00;;;15.70;91.00;;;;;;4165326;28;20045;-68
2022/05/09 02:14:44;;;;;;;0.00;0.00;;;15.70;91.00;;;;;;4165362;28;20045;-67
2022/05/09 02:17:10;;;;;;;0.00;0.00;;;15.80;90.90;;;;;;4152018;28;20049;-69
2022/05/09 02:19:34;;;;;;;0.00;0.00;;;15.90;90.90;;;;;;4151810;28;20056;-69
2022/05/09 02:21:56;;;;;;;0.00;0.00;;;15.90;90.80;;;;;;4165060;28;20088;-70
2022/05/09 02:24:22;;;;;;;0.00;0.00;;;16.00;90.80;;;;;;4165161;28;20107;-67
2022/05/09 02:29:31;;;;;;;0.00;0.00;;;15.80;90.70;;;;;;4151613;28;20464;-70
2022/05/09 02:31:57;;;;;;;0.00;0.00;;;15.80;90.80;;;;;;4165033;28;20053;-69
2022/05/09 02:34:19;;;;;;;0.00;0.00;;;15.80;90.80;;;;;;4151354;28;20057;-69
2022/05/09 02:36:46;;;;;;;0.00;0.00;;;15.80;90.80;;;;;;4165114;28;20479;-69
2022/05/09 02:39:11;;;;;;;0.00;0.00;;;15.80;90.70;;;;;;4179040;28;20491;-68
2022/05/09 02:41:36;;;;;;;0.00;0.00;;;15.70;90.90;;;;;;4164874;28;20053;-70
2022/05/09 02:43:59;;;;;;;0.00;0.00;;;15.70;91.10;;;;;;4164316;28;20049;-68
2022/05/09 02:46:21;;;;;;;0.00;0.00;;;15.80;91.20;;;;;;4151431;28;20041;-69
2022/05/09 02:48:46;;;;;;;0.00;0.00;;;15.80;91.20;;;;;;4150818;28;20101;-69
2022/05/09 02:51:11;;;;;;;0.00;0.00;;;15.80;91.20;;;;;;4164581;28;20045;-67
2022/05/09 02:53:37;;;;;;;0.00;0.00;;;15.80;91.30;;;;;;4164706;28;20041;-70
2022/05/09 02:55:59;;;;;;;0.00;0.00;;;15.90;91.30;;;;;;4164663;28;20127;-69
2022/05/09 02:58:24;;;;;;;0.00;0.00;;;16.00;91.30;;;;;;4150921;28;20050;-67
2022/05/09 03:00:49;;;;;;;0.00;0.00;;;16.00;91.30;;;;;;4164806;28;20049;-71
2022/05/09 03:05:58;;;;;;;0.00;0.00;;;16.10;91.10;;;;;;4137696;28;20089;-69
2022/05/09 03:08:20;;;;;;;0.00;0.00;;;16.20;91.00;;;;;;4164472;28;20129;-70
2022/05/09 03:10:45;;;;;;;0.00;0.00;;;16.10;91.00;;;;;;4164510;28;20073;-70
2022/05/09 03:13:09;;;;;;;0.00;0.00;;;16.10;90.90;;;;;;4164597;28;20349;-69
2022/05/09 03:15:35;;;;;;;0.00;0.00;;;16.20;90.90;;;;;;4164419;28;20041;-68
2022/05/09 03:17:57;;;;;;;0.00;0.00;;;16.20;90.80;;;;;;4150749;28;20046;-68
2022/05/09 03:20:24;;;;;;;0.00;0.00;;;16.20;90.80;;;;;;4178619;28;20067;-67
2022/05/09 03:22:46;;;;;;;0.00;0.00;;;16.20;90.80;;;;;;4164437;28;20060;-66
2022/05/09 03:25:10;;;;;;;0.00;0.00;;;16.20;90.90;;;;;;4164621;28;20068;-68
2022/05/09 03:27:32;;;;;;;0.00;0.00;;;16.20;90.90;;;;;;4164438;28;20053;-70
2022/05/09 03:29:57;;;;;;;0.00;0.00;;;16.10;91.00;;;;;;4138003;28;20460;-70
2022/05/09 03:32:20;;;;;;;0.00;0.00;;;16.10;91.00;;;;;;4164520;28;20452;-68
2022/05/09 03:34:47;;;;;;;0.00;0.00;;;16.20;91.00;;;;;;4150688;28;20064;-68
2022/05/09 03:37:12;;;;;;;0.00;0.00;;;16.20;90.90;;;;;;4164275;28;20048;-70
2022/05/09 03:39:36;;;;;;;0.00;0.00;;;16.20;90.80;;;;;;4164461;28;20076;-70
2022/05/09 03:42:00;;;;;;;0.00;0.00;;;16.20;90.80;;;;;;4164475;28;20049;-69
2022/05/09 03:44:24;;;;;;;0.00;0.00;;;16.20;90.70;;;;;;4150587;28;20115;-69
2022/05/09 03:46:48;;;;;;;0.00;0.00;;;16.20;90.70;;;;;;4164239;28;20121;-67
2022/05/09 03:49:15;;;;;;;0.00;0.00;;;16.20;90.70;;;;;;4164155;28;20095;-68
2022/05/09 03:51:39;;;;;;;0.00;0.00;;;16.20;90.60;;;;;;4164452;28;20092;-70
2022/05/09 03:54:01;;;;;;;0.00;0.00;;;16.20;90.60;;;;;;4164648;28;20541;-68
2022/05/09 03:56:25;;;;;;;0.00;0.00;;;16.20;90.60;;;;;;4153828;28;20054;-69
2022/05/09 03:58:55;;;;;;;0.00;0.00;;;16.20;90.60;;;;;;4167695;28;20064;-66
2022/05/09 04:01:21;;;;;;;0.00;0.00;;;16.20;90.70;;;;;;4167712;28;20144;-68
2022/05/09 04:03:46;;;;;;;0.00;0.00;;;16.20;90.80;;;;;;4167625;28;20384;-70
2022/05/09 04:06:10;;;;;;;0.00;0.00;;;16.20;90.90;;;;;;4154703;28;20380;-70
2022/05/09 04:08:36;;;;;;;0.00;0.00;;;16.20;91.00;;;;;;4154926;28;20053;-68
2022/05/09 04:10:58;;;;;;;0.00;0.00;;;15.90;91.40;;;;;;4167838;28;20057;-72
2022/05/09 04:13:23;;;;;;;0.00;0.00;;;15.80;91.80;;;;;;4153891;28;20539;-69
2022/05/09 04:18:36;;;;;;;0.00;0.00;;;15.50;92.40;;;;;;4167259;28;20053;-70
2022/05/09 04:20:58;;;;;;;0.00;0.00;;;15.60;92.40;;;;;;4167681;28;20133;-70
2022/05/09 04:23:22;;;;;;;0.00;0.00;;;15.70;92.40;;;;;;4167508;28;20049;-68
2022/05/09 04:25:45;;;;;;;0.00;0.00;;;15.70;92.40;;;;;;4153817;28;20532;-68
2022/05/09 04:28:08;;;;;;;0.00;0.00;;;15.60;92.50;;;;;;4167486;28;20139;-69
2022/05/09 04:30:35;;;;;;;0.00;0.00;;;15.70;92.50;;;;;;4167306;28;20058;-70
2022/05/09 04:32:59;;;;;;;0.00;0.00;;;15.70;92.50;;;;;;4167204;28;20029;-69
2022/05/09 04:35:24;;;;;;;0.00;0.00;;;15.80;92.50;;;;;;4153175;28;20058;-68
2022/05/09 04:37:48;;;;;;;0.00;0.00;;;15.80;92.40;;;;;;4153637;28;20061;-68
2022/05/09 04:40:15;;;;;;;0.00;0.00;;;15.90;92.40;;;;;;4139865;28;20077;-69
2022/05/09 04:42:39;;;;;;;0.00;0.00;;;16.00;92.20;;;;;;4167297;28;20444;-70
2022/05/09 04:45:04;;;;;;;0.00;0.00;;;16.00;92.20;;;;;;4167168;28;20808;-70
2022/05/09 04:47:29;;;;;;;0.00;0.00;;;16.00;92.00;;;;;;4153036;28;20046;-69
2022/05/09 04:49:53;;;;;;;0.00;0.00;;;16.00;91.90;;;;;;4166828;28;20045;-70
2022/05/09 04:52:21;;;;;;;0.00;0.00;;;16.00;91.90;;;;;;4167276;28;20046;-68
2022/05/09 04:54:43;;;;;;;0.00;0.00;;;16.00;91.90;;;;;;4166663;28;20049;-69
2022/05/09 04:57:05;;;;;;;0.00;0.00;;;15.90;91.90;;;;;;4166976;28;20064;-70
2022/05/09 04:59:31;;;;;;;0.00;0.00;;;15.90;91.90;;;;;;4166793;28;20042;-69
2022/05/09 05:01:58;;;;;;;0.00;0.00;;;15.90;91.90;;;;;;4166708;28;20115;-69
2022/05/09 05:04:23;;;;;;;0.00;0.00;;;15.80;92.00;;;;;;4153127;28;20066;-68
2022/05/09 05:06:47;;;;;;;0.00;0.00;;;15.70;92.10;;;;;;4152010;28;20133;-68
2022/05/09 05:09:12;;;;;;;0.00;0.00;;;15.80;92.20;;;;;;4166701;28;20046;-69
2022/05/09 05:11:34;;;;;;;0.00;0.00;;;15.80;92.20;;;;;;4166500;28;20037;-70
2022/05/09 05:13:58;;;;;;;0.00;0.00;;;15.80;92.20;;;;;;4166683;28;20099;-68
2022/05/09 05:16:59;;;;;;;0.00;0.00;;;15.90;92.10;;;;;;4166465;28;20125;-72
2022/05/09 05:19:02;;;;;;;0.00;0.00;;;15.90;92.00;;;;;;4166490;28;20049;-68
2022/05/09 05:21:26;;;;;;;0.00;0.00;;;15.80;92.20;;;;;;4139098;28;20108;-73
2022/05/09 05:23:50;;;;;;;0.00;0.00;;;15.80;92.20;;;;;;4166516;28;20045;-68
2022/05/09 05:26:17;;;;;;;0.00;0.00;;;15.90;92.20;;;;;;4166216;28;20053;-68
2022/05/09 05:28:44;;;;;;;0.00;0.00;;;15.90;92.10;;;;;;4152776;28;20046;-70
2022/05/09 05:31:20;;;;;;;0.00;0.00;;;16.00;91.90;;;;;;4166277;28;20048;-68
2022/05/09 05:33:45;;;;;;;0.00;0.00;;;16.00;91.90;;;;;;4152717;28;20045;-68
2022/05/09 05:36:12;;;;;;;0.00;0.00;;;16.00;92.00;;;;;;4166398;28;20049;-69
2022/05/09 05:38:37;;;;;;;0.00;0.00;;;16.00;91.90;;;;;;4166400;28;20463;-68
2022/05/09 05:41:03;;;;;;;0.00;0.00;;;15.90;92.00;;;;;;4152005;28;20356;-67
2022/05/09 05:43:30;;;;;;;0.00;0.00;;;15.90;92.00;;;;;;4164756;28;20096;-68
2022/05/09 05:46:00;;;;;;;0.00;0.00;;;15.90;91.90;;;;;;4150846;28;20097;-67
2022/05/09 05:48:25;;;;;;;0.00;0.00;;;15.90;92.10;;;;;;4189418;28;20075;-67
2022/05/09 05:50:52;;;;;;;0.00;0.00;;;15.80;92.20;;;;;;4199037;28;20393;-67
2022/05/09 05:53:14;;;;;;;0.00;0.00;;;15.70;92.60;;;;;;4169997;28;20088;-68
2022/05/09 05:55:36;;;;;;;0.00;0.00;;;15.70;92.80;;;;;;4183950;28;20096;-66
2022/05/09 05:58:00;;;;;;;0.00;0.00;;;15.70;92.50;;;;;;4198854;28;20105;-67
2022/05/09 06:00:25;;;;;;;0.00;0.00;;;15.80;92.50;;;;;;4197407;28;20051;-68
2022/05/09 06:02:50;;;;;;;0.00;0.00;;;15.80;92.40;;;;;;4197220;28;20044;-66
2022/05/09 06:05:18;;;;;;;0.00;0.00;;;15.90;92.30;;;;;;4211461;28;20044;-68
2022/05/09 06:07:46;;;;;;;0.00;0.00;;;16.00;92.00;;;;;;4211641;28;20117;-69
2022/05/09 06:10:12;;;;;;;0.00;0.00;;;15.90;92.00;;;;;;4211779;28;20492;-69
2022/05/09 06:12:37;;;;;;;0.00;0.00;;;15.90;92.00;;;;;;4211480;28;20097;-67
2022/05/09 06:17:45;;;;;;;0.00;0.00;;;15.90;92.30;;;;;;4197411;28;20049;-67
2022/05/09 06:20:13;;;;;;;0.00;0.00;;;15.60;92.60;;;;;;4184028;28;20622;-68
2022/05/09 06:22:38;;;;;;;0.00;0.00;;;15.40;93.00;;;;;;4197283;28;20052;-66
2022/05/09 06:25:03;;;;;;;0.00;0.00;;;15.40;93.20;;;;;;4169428;28;20033;-67
2022/05/09 06:27:31;;;;;;;0.00;0.00;;;15.40;93.30;;;;;;4182902;28;20068;-67
2022/05/09 06:29:53;;;;;;;0.00;0.00;;;15.40;93.30;;;;;;4169452;28;20562;-67
2022/05/09 06:32:24;;;;;;;0.00;0.00;;;15.50;93.30;;;;;;4179781;28;20546;-64
2022/05/09 06:34:46;;;;;;;0.00;0.00;;;15.60;93.00;;;;;;4164765;28;20045;-66
2022/05/09 06:37:08;;;;;;;0.00;0.00;;;15.80;92.80;;;;;;4155978;28;20041;-65
2022/05/09 06:39:32;;;;;;;0.00;0.00;;;15.90;92.70;;;;;;4197019;28;20533;-66
2022/05/09 06:41:57;;;;;;;0.00;0.00;;;15.90;92.70;;;;;;4199659;28;20075;-65
2022/05/09 06:44:26;;;;;;;0.00;0.00;;;16.00;92.60;;;;;;4166727;28;20063;-66
2022/05/09 06:46:51;;;;;;;0.00;0.00;;;16.10;92.40;;;;;;4168937;28;20413;-66
2022/05/09 06:49:15;;;;;;;0.00;0.00;;;16.20;92.30;;;;;;4184187;28;20094;-67
2022/05/09 06:51:40;;;;;;;0.00;0.00;;;16.30;92.10;;;;;;4169678;28;20056;-67
2022/05/09 06:54:05;;;;;;;0.00;0.00;;;16.50;91.90;;;;;;4169191;28;20041;-66
2022/05/09 06:56:32;;;;;;;0.00;0.00;;;16.40;91.70;;;;;;4183065;28;20039;-67
2022/05/09 06:58:56;;;;;;;0.00;0.00;;;16.50;91.90;;;;;;4169296;28;20057;-67
2022/05/09 07:01:21;;;;;;;0.00;0.00;;;16.60;91.80;;;;;;4168645;28;20492;-67
2022/05/09 07:03:46;;;;;;;0.00;0.00;;;16.70;91.60;;;;;;4156022;28;20045;-65
2022/05/09 07:06:08;;;;;;;0.00;0.00;;;16.70;91.40;;;;;;4182746;28;20164;-66
2022/05/09 07:08:32;;;;;;;0.00;0.00;;;16.70;91.10;;;;;;4182788;28;20045;-68
2022/05/09 07:10:57;;;;;;;0.00;0.00;;;16.70;91.10;;;;;;4168869;28;20055;-66
2022/05/09 07:13:34;;;;;;;0.00;0.00;;;16.80;91.20;;;;;;4171059;28;20072;-66
2022/05/09 07:15:59;;;;;;;0.00;0.00;;;16.90;91.30;;;;;;4168696;28;20092;-67
2022/05/09 07:18:29;;;;;;;0.00;0.00;;;16.90;91.20;;;;;;4182980;28;20131;-66
2022/05/09 07:20:54;;;;;;;0.00;0.00;;;17.00;91.40;;;;;;4168832;28;20070;-65
2022/05/09 07:23:21;;;;;;;0.00;0.00;;;16.90;91.00;;;;;;4168938;28;20482;-65
2022/05/09 07:25:43;;;;;;;0.00;0.00;;;16.80;91.20;;;;;;4168567;28;20042;-66
2022/05/09 07:28:06;;;;;;;0.00;0.00;;;16.70;91.20;;;;;;4182670;28;20049;-66
2022/05/09 07:30:31;;;;;;;0.00;0.00;;;16.70;91.30;;;;;;4185880;28;20131;-65
2022/05/09 07:32:58;;;;;;;0.00;0.00;;;16.80;91.20;;;;;;4186074;28;20238;-66
2022/05/09 07:35:24;;;;;;;0.00;0.00;;;16.90;91.00;;;;;;4186159;28;20053;-65
2022/05/09 07:37:47;;;;;;;0.00;0.00;;;16.80;91.30;;;;;;4171710;28;20085;-66
2022/05/09 07:40:13;;;;;;;0.00;0.00;;;17.00;91.20;;;;;;4185867;28;20131;-68
2022/05/09 07:42:35;;;;;;;0.00;0.00;;;17.20;90.80;;;;;;4159854;28;20127;-66
2022/05/09 07:45:02;;;;;;;0.00;0.00;;;17.20;90.70;;;;;;4182340;28;20379;-66
2022/05/09 07:47:26;;;;;;;0.00;0.00;;;17.20;90.80;;;;;;4171945;28;20057;-66
2022/05/09 07:49:48;;;;;;;0.00;0.00;;;17.30;90.80;;;;;;4162230;28;20116;-67
2022/05/09 07:52:17;;;;;;;0.00;0.00;;;17.40;90.70;;;;;;4169343;28;20046;-67
2022/05/09 07:54:41;;;;;;;0.00;0.00;;;17.60;90.50;;;;;;4169098;28;20041;-66
2022/05/09 07:57:03;;;;;;;0.00;0.00;;;17.50;90.40;;;;;;4155502;28;20092;-65
2022/05/09 07:59:29;;;;;;;0.00;0.00;;;17.40;90.40;;;;;;4169328;28;20418;-67
2022/05/09 08:01:52;;;;;;;0.00;0.00;;;17.30;90.30;;;;;;4176116;28;20084;-67
2022/05/09 08:04:14;;;;;;;0.00;0.00;;;17.30;90.50;;;;;;4172077;28;20052;-66
2022/05/09 08:06:36;;;;;;;0.00;0.00;;;17.20;90.50;;;;;;4171938;28;20517;-66
2022/05/09 08:09:00;;;;;;;0.00;0.00;;;17.20;90.70;;;;;;4199421;28;20044;-66
2022/05/09 08:11:25;;;;;;;0.00;0.00;;;17.20;90.70;;;;;;4171589;28;20061;-67
2022/05/09 08:13:49;;;;;;;0.00;0.00;;;17.30;90.80;;;;;;4185588;28;20472;-64
2022/05/09 08:16:15;;;;;;;0.00;0.00;;;17.40;90.70;;;;;;4185446;28;20056;-65
2022/05/09 08:18:40;;;;;;;0.00;0.00;;;17.50;90.30;;;;;;4171813;28;20128;-66
2022/05/09 08:21:05;;;;;;;0.00;0.00;;;17.50;90.10;;;;;;4157553;28;20048;-68
2022/05/09 08:23:31;;;;;;;0.00;0.00;;;17.50;89.80;;;;;;4199061;28;20032;-67
2022/05/09 08:25:56;;;;;;;0.00;0.00;;;17.60;89.80;;;;;;4171076;28;20046;-65
2022/05/09 08:28:21;;;;;;;0.00;0.00;;;17.90;89.60;;;;;;4185405;28;20422;-67
2022/05/09 08:30:44;;;;;;;0.00;0.00;;;18.00;89.10;;;;;;4171407;28;20068;-65
2022/05/09 08:33:15;;;;;;;0.00;0.00;;;17.90;89.50;;;;;;4171474;28;20041;-67
2022/05/09 08:35:41;;;;;;;0.00;0.00;;;17.80;90.00;;;;;;4170946;28;20121;-66
2022/05/09 08:38:06;;;;;;;0.00;0.00;;;18.10;89.80;;;;;;4171078;28;20068;-66
2022/05/09 08:40:53;;;;;;;0.00;0.00;;;18.40;89.50;;;;;;4171319;28;20048;-67
2022/05/09 08:43:37;;;;;;;0.00;0.00;;;18.70;87.40;;;;;;4178263;28;20155;-66
2022/05/09 08:46:27;;;;;;;0.00;0.00;;;18.70;86.90;;;;;;4187777;28;20036;-66
2022/05/09 08:49:02;;;;;;;0.00;0.00;;;18.70;86.40;;;;;;4199772;28;20049;-66
2022/05/09 08:52:01;;;;;;;0.00;0.00;;;18.70;87.30;;;;;;4170580;28;20049;-65
2022/05/09 08:54:25;;;;;;;0.00;0.00;;;18.80;86.80;;;;;;4132079;28;21933;-66
2022/05/09 08:56:57;;;;;;;0.00;0.00;;;18.70;86.40;;;;;;4152072;28;20068;-66
2022/05/09 08:59:32;;;;;;;0.00;0.00;;;18.60;86.70;;;;;;4151971;28;20096;-66
2022/05/09 09:02:19;;;;;;;0.00;0.00;;;18.60;86.70;;;;;;4151923;28;20766;-66
2022/05/09 09:04:49;;;;;;;0.00;0.00;;;18.50;85.80;;;;;;4165492;28;20037;-66
2022/05/09 09:07:20;;;;;;;0.00;0.00;;;18.60;86.70;;;;;;4165439;28;20103;-67
2022/05/09 09:09:56;;;;;;;0.00;0.00;;;18.70;85.80;;;;;;4165382;28;20149;-67
2022/05/09 09:12:52;;;;;;;0.00;0.00;;;18.80;85.20;;;;;;4151701;28;20042;-65
2022/05/09 09:15:43;;;;;;;0.00;0.00;;;18.70;86.10;;;;;;4151784;28;20078;-65
2022/05/09 09:18:05;;;;;;;0.00;0.00;;;18.90;85.30;;;;;;4151600;28;20436;-67
2022/05/09 09:20:35;;;;;;;0.00;0.00;;;18.80;84.70;;;;;;4138338;28;20069;-65
2022/05/09 09:23:18;;;;;;;0.00;0.00;;;18.80;84.80;;;;;;4165451;28;20053;-65
2022/05/09 09:26:02;;;;;;;0.00;0.00;;;18.70;84.60;;;;;;4151303;28;20108;-65
2022/05/09 09:28:33;;;;;;;0.00;0.00;;;18.80;84.60;;;;;;4165056;28;20509;-66
2022/05/09 09:31:00;;;;;;;0.00;0.00;;;18.70;85.10;;;;;;4151421;28;20424;-66
2022/05/09 09:33:22;;;;;;;0.00;0.00;;;18.90;85.40;;;;;;4151581;28;20401;-66
2022/05/09 09:36:04;;;;;;;0.00;0.00;;;19.10;84.80;;;;;;4151260;28;20084;-66
2022/05/09 09:38:35;;;;;;;0.00;0.00;;;19.30;84.10;;;;;;4151044;28;20050;-65
2022/05/09 09:41:26;;;;;;;0.00;0.00;;;19.50;83.70;;;;;;4151546;28;20050;-66
2022/05/09 09:43:57;;;;;;;0.00;0.00;;;19.60;83.40;;;;;;4164617;28;20054;-64
2022/05/09 09:46:19;;;;;;;0.00;0.00;;;19.70;82.90;;;;;;4150936;28;20049;-65
2022/05/09 09:48:43;;;;;;;0.00;0.00;;;19.70;82.40;;;;;;4142577;28;20060;-66
2022/05/09 09:51:07;;;;;;;0.00;0.00;;;19.50;82.90;;;;;;4132363;28;20054;-65
2022/05/09 09:53:47;;;;;;;0.00;0.00;;;19.60;83.30;;;;;;4131832;28;20551;-65
2022/05/09 09:56:34;;;;;;;0.00;0.00;;;19.80;82.70;;;;;;4146094;28;20054;-66
2022/05/09 09:59:13;;;;;;;0.00;0.00;;;19.80;82.50;;;;;;4131935;28;20122;-67
2022/05/09 10:01:39;;;;;;;0.00;0.00;;;19.70;83.20;;;;;;4145674;28;20086;-67
2022/05/09 10:04:10;;;;;;;0.00;0.00;;;19.70;83.10;;;;;;4152640;28;20029;-68
2022/05/09 10:06:33;;;;;;;0.00;0.00;;;19.80;83.80;;;;;;4156729;28;20033;-67
2022/05/09 10:09:07;;;;;;;0.00;0.00;;;19.90;83.60;;;;;;4134752;28;20054;-66
2022/05/09 10:11:30;;;;;;;0.00;0.00;;;20.00;82.70;;;;;;4133268;28;20358;-68
2022/05/09 10:13:58;;;;;;;0.00;0.00;;;20.10;82.40;;;;;;4146339;28;20396;-66
2022/05/09 10:16:38;;;;;;;0.00;0.00;;;20.20;83.10;;;;;;4133066;28;20045;-65
2022/05/09 10:19:27;;;;;;;0.00;0.00;;;20.30;80.70;;;;;;4145868;28;20109;-65
2022/05/09 10:24:48;;;;;;;0.00;0.00;;;20.10;80.80;;;;;;4146399;28;20081;-66
2022/05/09 10:27:20;;;;;;;0.00;0.00;;;20.20;80.30;;;;;;4132875;28;20054;-65
2022/05/09 10:29:45;;;;;;;0.00;0.00;;;20.40;80.30;;;;;;4146425;28;20048;-66
2022/05/09 10:32:13;;;;;;;0.00;0.00;;;20.50;79.70;;;;;;4133133;28;20045;-66
2022/05/09 10:35:06;;;;;;;0.00;0.00;;;20.70;78.50;;;;;;4146475;28;20045;-66
2022/05/09 10:37:56;;;;;;;0.00;0.00;;;20.80;77.00;;;;;;4132920;28;20469;-66
2022/05/09 10:40:30;;;;;;;0.00;0.00;;;20.60;76.70;;;;;;4132810;28;20085;-66
2022/05/09 10:42:59;;;;;;;0.00;0.00;;;20.60;76.30;;;;;;4132930;28;20057;-67
2022/05/09 10:45:32;;;;;;;0.00;0.00;;;20.50;76.10;;;;;;4132799;28;20409;-66
2022/05/09 10:47:57;;;;;;;0.00;0.00;;;20.60;76.00;;;;;;4119033;28;20047;-64
2022/05/09 10:51:03;;;;;;;0.00;0.00;;;20.60;74.80;;;;;;4132483;28;20432;-68
2022/05/09 10:53:31;;;;;;;0.00;0.00;;;20.50;74.20;;;;;;4146382;28;20471;-68
2022/05/09 10:56:08;;;;;;;0.00;0.00;;;20.40;75.60;;;;;;4132520;28;20345;-66
2022/05/09 10:58:46;;;;;;;0.00;0.00;;;20.40;76.00;;;;;;4133095;28;20049;-65
2022/05/09 11:01:19;;;;;;;0.00;0.00;;;20.60;75.40;;;;;;4132547;28;20038;-68
2022/05/09 11:03:45;;;;;;;0.00;0.00;;;20.60;75.10;;;;;;4132013;28;20054;-67
2022/05/09 11:06:13;;;;;;;0.00;0.00;;;20.60;75.70;;;;;;4132827;28;20428;-65
2022/05/09 11:09:08;;;;;;;0.00;0.00;;;20.80;76.00;;;;;;4132544;28;20105;-69
2022/05/09 11:11:56;;;;;;;0.00;0.00;;;20.90;75.40;;;;;;4132524;28;20827;-66
2022/05/09 11:14:39;;;;;;;0.00;0.00;;;21.00;75.30;;;;;;4132528;28;20145;-65
2022/05/09 11:17:31;;;;;;;0.00;0.00;;;21.10;75.70;;;;;;4132649;28;20061;-67
2022/05/09 11:20:22;;;;;;;0.00;0.00;;;21.20;75.70;;;;;;4146160;28;20458;-66
2022/05/09 11:22:56;;;;;;;0.00;0.00;;;21.30;76.50;;;;;;4132484;28;20527;-66
2022/05/09 11:25:28;;;;;;;0.00;0.00;;;21.40;76.40;;;;;;4145983;28;20080;-66
2022/05/09 11:28:25;;;;;;;0.00;0.00;;;21.40;77.00;;;;;;4132096;28;20060;-67
2022/05/09 11:30:53;;;;;;;0.00;0.00;;;21.40;76.30;;;;;;4125831;28;20058;-66
2022/05/09 11:33:45;;;;;;;0.00;0.00;;;21.50;75.50;;;;;;4132276;28;20101;-67
2022/05/09 11:36:32;;;;;;;0.00;0.00;;;21.40;75.10;;;;;;4132297;28;20081;-67
2022/05/09 11:38:57;;;;;;;0.00;0.00;;;21.60;74.60;;;;;;4132083;28;20078;-66
2022/05/09 11:41:22;;;;;;;0.00;0.00;;;21.60;74.10;;;;;;4132188;28;20054;-65
2022/05/09 11:43:47;;;;;;;0.00;0.00;;;21.60;74.20;;;;;;4145787;28;20372;-67
2022/05/09 11:46:30;;;;;;;0.00;0.00;;;21.70;73.90;;;;;;4145863;28;20042;-65
2022/05/09 11:49:18;;;;;;;0.00;0.00;;;21.80;73.50;;;;;;4132159;28;20043;-67
2022/05/09 11:51:52;;;;;;;0.00;0.00;;;21.90;73.30;;;;;;4146058;28;20065;-66
2022/05/09 11:54:22;;;;;;;0.00;0.00;;;21.90;72.60;;;;;;4132100;28;20096;-65
2022/05/09 11:56:50;;;;;;;0.00;0.00;;;21.90;72.50;;;;;;4132066;28;20063;-67
2022/05/09 11:59:22;;;;;;;0.00;0.00;;;21.90;73.20;;;;;;4145832;28;20049;-65
2022/05/09 12:02:04;;;;;;;0.00;0.00;;;21.90;73.90;;;;;;4131865;28;20057;-68
2022/05/09 12:04:35;;;;;;;0.00;0.00;;;22.00;73.20;;;;;;4132238;28;20459;-64
2022/05/09 12:06:57;;;;;;;0.00;0.00;;;21.90;72.40;;;;;;4145952;28;20060;-65
2022/05/09 12:09:58;;;;;;;0.00;0.00;;;21.90;72.30;;;;;;4132218;28;20046;-65
2022/05/09 12:12:40;;;;;;;0.00;0.00;;;22.00;72.60;;;;;;4145648;28;20433;-65
2022/05/09 12:15:09;;;;;;;0.00;0.00;;;22.10;72.70;;;;;;4146001;28;20089;-66
2022/05/09 12:17:34;;;;;;;0.00;0.00;;;22.20;71.70;;;;;;4135077;28;20521;-65
2022/05/09 12:19:57;;;;;;;0.00;0.00;;;22.10;72.10;;;;;;4135100;28;20050;-65
2022/05/09 12:22:37;;;;;;;0.00;0.00;;;22.00;71.80;;;;;;4135098;28;20058;-65
2022/05/09 12:24:59;;;;;;;0.00;0.00;;;22.10;72.70;;;;;;4148792;28;20108;-65
2022/05/09 12:27:39;;;;;;;0.00;0.00;;;22.00;71.40;;;;;;4148777;28;20058;-67
2022/05/09 12:30:02;;;;;;;0.00;0.00;;;21.90;71.00;;;;;;4148337;28;20108;-65
2022/05/09 12:32:27;;;;;;;0.00;0.00;;;21.90;72.00;;;;;;4135032;28;20050;-66
2022/05/09 12:34:51;;;;;;;0.00;0.00;;;22.00;72.10;;;;;;4134782;28;20105;-66
2022/05/09 12:37:46;;;;;;;0.00;0.00;;;22.10;72.50;;;;;;4134936;28;20058;-65
2022/05/09 12:40:33;;;;;;;0.00;0.00;;;22.20;73.00;;;;;;4134530;28;20117;-66
2022/05/09 12:43:02;;;;;;;0.00;0.00;;;22.10;71.40;;;;;;4135761;28;20041;-65
2022/05/09 12:45:25;;;;;;;0.00;0.00;;;21.70;73.00;;;;;;4134475;28;20125;-66
2022/05/09 12:47:52;;;;;;;0.00;0.00;;;21.60;73.00;;;;;;4148023;28;20061;-67
2022/05/09 12:50:29;;;;;;;0.00;0.00;;;21.70;73.50;;;;;;4134540;28;20064;-67
2022/05/09 12:53:01;;;;;;;0.00;0.00;;;22.00;73.80;;;;;;4134650;28;20121;-67
2022/05/09 12:55:52;;;;;;;0.00;0.00;;;22.20;73.40;;;;;;4134480;28;20052;-68
2022/05/09 12:58:37;;;;;;;0.00;0.00;;;22.30;72.60;;;;;;4147870;28;20053;-64
2022/05/09 13:01:25;;;;;;;0.00;0.00;;;22.40;72.40;;;;;;4147770;28;20046;-66
2022/05/09 13:04:34;;;;;;;0.00;0.00;;;22.50;72.40;;;;;;4134220;28;20073;-67
2022/05/09 13:07:07;;;;;;;0.00;0.00;;;22.40;70.40;;;;;;4134461;28;20046;-65
2022/05/09 13:09:35;;;;;;;0.00;0.00;;;22.20;71.90;;;;;;4133897;28;20126;-64
2022/05/09 13:12:08;;;;;;;0.00;0.00;;;22.30;71.50;;;;;;4147971;28;20076;-65
2022/05/09 13:14:36;;;;;;;0.00;0.00;;;22.50;71.00;;;;;;4134289;28;20057;-66
2022/05/09 13:17:03;;;;;;;0.00;0.00;;;22.50;69.90;;;;;;4147973;28;20045;-67